San Francisco, California
Traffic Map
Current Weather Conditions
San Francisco, California
Few Clouds
Few Clouds
73°
Feels Like: 73°
Wind Chill: 73° Ceiling: Unl
Heat Index: 73° Visibility: 10mi
Dew Point: 33° Wind: 6mph
Humidity: 23% Direction: 350° (N)
Pressure: 29.96in Gusts: 0mph
Raw Report DataKSFO 312156Z 35005KT 10SM FEW200 23/01 A2996 RMK AO2 SLP144 T02280006
Traffic Incident Summary
Active as of:
Severity:
Category:
InformationThere was an issue retrieving the traffic information for this location. Please try a different location or try again shortly.
Advertisements
Track Severe Weather on mobile